sensor_id;sensor_type;location;lat;lon;timestamp;P1;durP1;ratioP1;P2;durP2;ratioP2
249;SDS011;109;19.806;-70.704;2022-12-08T00:01:22;14.50;;;4.97;;
249;SDS011;109;19.806;-70.704;2022-12-08T00:03:51;12.87;;;6.03;;
249;SDS011;109;19.806;-70.704;2022-12-08T00:09:23;10.70;;;5.60;;
249;SDS011;109;19.806;-70.704;2022-12-08T00:11:55;12.30;;;5.60;;
249;SDS011;109;19.806;-70.704;2022-12-08T00:14:22;20.57;;;6.00;;
249;SDS011;109;19.806;-70.704;2022-12-08T00:16:50;10.20;;;5.00;;
249;SDS011;109;19.806;-70.704;2022-12-08T00:19:17;15.80;;;6.10;;
249;SDS011;109;19.806;-70.704;2022-12-08T00:21:43;13.90;;;4.43;;
249;SDS011;109;19.806;-70.704;2022-12-08T00:24:10;12.77;;;4.87;;
249;SDS011;109;19.806;-70.704;2022-12-08T00:26:37;10.73;;;4.07;;
249;SDS011;109;19.806;-70.704;2022-12-08T00:29:18;12.77;;;4.13;;
249;SDS011;109;19.806;-70.704;2022-12-08T00:31:59;11.73;;;3.70;;
249;SDS011;109;19.806;-70.704;2022-12-08T00:34:25;11.17;;;3.30;;
249;SDS011;109;19.806;-70.704;2022-12-08T00:37:06;7.47;;;3.53;;
249;SDS011;109;19.806;-70.704;2022-12-08T00:39:32;9.17;;;3.70;;
249;SDS011;109;19.806;-70.704;2022-12-08T00:42:12;10.13;;;3.77;;
249;SDS011;109;19.806;-70.704;2022-12-08T00:44:42;8.57;;;3.80;;
249;SDS011;109;19.806;-70.704;2022-12-08T00:47:24;7.60;;;4.03;;
249;SDS011;109;19.806;-70.704;2022-12-08T00:49:50;13.90;;;4.23;;
249;SDS011;109;19.806;-70.704;2022-12-08T00:52:30;9.90;;;3.80;;
249;SDS011;109;19.806;-70.704;2022-12-08T00:54:56;20.90;;;4.60;;
249;SDS011;109;19.806;-70.704;2022-12-08T00:57:36;15.97;;;4.87;;
249;SDS011;109;19.806;-70.704;2022-12-08T01:00:02;17.37;;;3.90;;
249;SDS011;109;19.806;-70.704;2022-12-08T01:02:44;8.03;;;3.77;;
249;SDS011;109;19.806;-70.704;2022-12-08T01:05:10;10.80;;;3.60;;
249;SDS011;109;19.806;-70.704;2022-12-08T01:07:50;8.43;;;3.53;;
249;SDS011;109;19.806;-70.704;2022-12-08T01:10:16;10.83;;;3.50;;
249;SDS011;109;19.806;-70.704;2022-12-08T01:12:57;10.77;;;3.70;;
249;SDS011;109;19.806;-70.704;2022-12-08T01:15:23;13.23;;;3.80;;
249;SDS011;109;19.806;-70.704;2022-12-08T01:18:04;12.30;;;4.20;;
249;SDS011;109;19.806;-70.704;2022-12-08T01:20:30;11.27;;;3.93;;
249;SDS011;109;19.806;-70.704;2022-12-08T01:23:10;7.37;;;3.43;;
249;SDS011;109;19.806;-70.704;2022-12-08T01:25:37;9.70;;;3.73;;
249;SDS011;109;19.806;-70.704;2022-12-08T01:28:24;9.03;;;3.50;;
249;SDS011;109;19.806;-70.704;2022-12-08T01:31:04;7.50;;;3.40;;
249;SDS011;109;19.806;-70.704;2022-12-08T01:33:42;10.83;;;4.07;;
249;SDS011;109;19.806;-70.704;2022-12-08T01:36:24;10.90;;;3.50;;
249;SDS011;109;19.806;-70.704;2022-12-08T01:38:52;7.20;;;4.10;;
249;SDS011;109;19.806;-70.704;2022-12-08T01:41:36;9.90;;;4.10;;
249;SDS011;109;19.806;-70.704;2022-12-08T01:46:50;10.40;;;3.40;;
249;SDS011;109;19.806;-70.704;2022-12-08T01:49:19;8.40;;;3.40;;
249;SDS011;109;19.806;-70.704;2022-12-08T01:52:08;8.80;;;3.50;;
249;SDS011;109;19.806;-70.704;2022-12-08T01:54:49;9.40;;;3.80;;
249;SDS011;109;19.806;-70.704;2022-12-08T01:57:46;10.13;;;3.30;;
249;SDS011;109;19.806;-70.704;2022-12-08T02:00:22;21.70;;;3.70;;
249;SDS011;109;19.806;-70.704;2022-12-08T02:03:04;17.23;;;3.70;;
249;SDS011;109;19.806;-70.704;2022-12-08T02:05:42;8.40;;;3.13;;
249;SDS011;109;19.806;-70.704;2022-12-08T02:08:24;13.60;;;4.10;;
249;SDS011;109;19.806;-70.704;2022-12-08T02:10:51;9.20;;;3.70;;
249;SDS011;109;19.806;-70.704;2022-12-08T02:13:31;12.63;;;3.80;;
249;SDS011;109;19.806;-70.704;2022-12-08T02:34:43;15.27;;;4.20;;
249;SDS011;109;19.806;-70.704;2022-12-08T02:37:28;8.50;;;3.60;;
249;SDS011;109;19.806;-70.704;2022-12-08T02:43:07;14.10;;;3.60;;
249;SDS011;109;19.806;-70.704;2022-12-08T02:45:47;12.43;;;3.73;;
249;SDS011;109;19.806;-70.704;2022-12-08T02:48:31;42.20;;;5.80;;
249;SDS011;109;19.806;-70.704;2022-12-08T02:51:12;60.50;;;8.33;;
249;SDS011;109;19.806;-70.704;2022-12-08T02:53:38;55.30;;;6.20;;
249;SDS011;109;19.806;-70.704;2022-12-08T03:05:52;21.37;;;4.80;;
249;SDS011;109;19.806;-70.704;2022-12-08T03:08:58;27.13;;;5.00;;
249;SDS011;109;19.806;-70.704;2022-12-08T03:14:43;16.10;;;5.27;;
249;SDS011;109;19.806;-70.704;2022-12-08T03:17:31;21.47;;;4.60;;
249;SDS011;109;19.806;-70.704;2022-12-08T03:19:59;14.37;;;5.10;;
249;SDS011;109;19.806;-70.704;2022-12-08T03:22:44;19.23;;;4.50;;
249;SDS011;109;19.806;-70.704;2022-12-08T03:25:21;16.30;;;4.90;;
249;SDS011;109;19.806;-70.704;2022-12-08T03:28:04;16.10;;;4.80;;
249;SDS011;109;19.806;-70.704;2022-12-08T03:30:31;32.03;;;5.53;;
249;SDS011;109;19.806;-70.704;2022-12-08T03:33:26;32.00;;;6.40;;
249;SDS011;109;19.806;-70.704;2022-12-08T03:36:11;24.73;;;5.63;;
249;SDS011;109;19.806;-70.704;2022-12-08T03:38:40;19.10;;;4.50;;
249;SDS011;109;19.806;-70.704;2022-12-08T03:41:23;10.97;;;4.30;;
249;SDS011;109;19.806;-70.704;2022-12-08T03:43:51;12.20;;;4.00;;
249;SDS011;109;19.806;-70.704;2022-12-08T03:46:35;13.57;;;4.30;;
249;SDS011;109;19.806;-70.704;2022-12-08T03:49:01;10.03;;;3.70;;
249;SDS011;109;19.806;-70.704;2022-12-08T03:51:41;10.43;;;3.60;;
249;SDS011;109;19.806;-70.704;2022-12-08T03:54:07;11.73;;;3.60;;
249;SDS011;109;19.806;-70.704;2022-12-08T03:56:48;14.50;;;3.80;;
249;SDS011;109;19.806;-70.704;2022-12-08T03:59:14;16.83;;;3.37;;
249;SDS011;109;19.806;-70.704;2022-12-08T04:01:54;21.93;;;4.53;;
249;SDS011;109;19.806;-70.704;2022-12-08T04:04:20;11.03;;;3.67;;
249;SDS011;109;19.806;-70.704;2022-12-08T04:07:00;17.10;;;4.00;;
249;SDS011;109;19.806;-70.704;2022-12-08T04:09:26;14.07;;;3.47;;
249;SDS011;109;19.806;-70.704;2022-12-08T04:12:07;14.93;;;3.73;;
249;SDS011;109;19.806;-70.704;2022-12-08T04:14:34;16.03;;;4.87;;
249;SDS011;109;19.806;-70.704;2022-12-08T04:17:14;14.00;;;3.73;;
249;SDS011;109;19.806;-70.704;2022-12-08T04:19:48;24.43;;;4.37;;
249;SDS011;109;19.806;-70.704;2022-12-08T04:22:28;12.97;;;3.73;;
249;SDS011;109;19.806;-70.704;2022-12-08T04:24:54;12.00;;;3.50;;
249;SDS011;109;19.806;-70.704;2022-12-08T04:27:35;14.10;;;3.50;;
249;SDS011;109;19.806;-70.704;2022-12-08T04:30:01;10.27;;;3.60;;
249;SDS011;109;19.806;-70.704;2022-12-08T04:32:47;15.87;;;3.70;;
249;SDS011;109;19.806;-70.704;2022-12-08T04:35:21;13.57;;;3.63;;
249;SDS011;109;19.806;-70.704;2022-12-08T04:38:01;14.37;;;3.80;;
249;SDS011;109;19.806;-70.704;2022-12-08T04:40:27;9.20;;;3.10;;
249;SDS011;109;19.806;-70.704;2022-12-08T04:43:08;13.53;;;3.50;;
249;SDS011;109;19.806;-70.704;2022-12-08T04:45:34;15.13;;;3.97;;
249;SDS011;109;19.806;-70.704;2022-12-08T04:48:18;11.10;;;3.77;;
249;SDS011;109;19.806;-70.704;2022-12-08T04:50:44;11.30;;;3.80;;
249;SDS011;109;19.806;-70.704;2022-12-08T04:53:24;19.13;;;3.70;;
249;SDS011;109;19.806;-70.704;2022-12-08T04:55:51;19.17;;;4.27;;
249;SDS011;109;19.806;-70.704;2022-12-08T04:58:32;14.40;;;3.73;;
249;SDS011;109;19.806;-70.704;2022-12-08T05:01:12;9.73;;;3.30;;
249;SDS011;109;19.806;-70.704;2022-12-08T05:03:39;15.43;;;3.50;;
249;SDS011;109;19.806;-70.704;2022-12-08T05:06:19;17.33;;;4.03;;
249;SDS011;109;19.806;-70.704;2022-12-08T05:08:52;6.50;;;3.20;;
249;SDS011;109;19.806;-70.704;2022-12-08T05:11:32;8.57;;;3.17;;
249;SDS011;109;19.806;-70.704;2022-12-08T05:13:58;11.10;;;3.40;;
249;SDS011;109;19.806;-70.704;2022-12-08T05:16:39;12.13;;;3.30;;
249;SDS011;109;19.806;-70.704;2022-12-08T05:19:06;14.07;;;4.30;;
249;SDS011;109;19.806;-70.704;2022-12-08T05:21:46;12.30;;;4.30;;
249;SDS011;109;19.806;-70.704;2022-12-08T05:24:12;13.70;;;3.67;;
249;SDS011;109;19.806;-70.704;2022-12-08T05:26:52;14.40;;;3.30;;
249;SDS011;109;19.806;-70.704;2022-12-08T05:29:18;10.10;;;3.80;;
249;SDS011;109;19.806;-70.704;2022-12-08T05:32:05;10.93;;;3.90;;
249;SDS011;109;19.806;-70.704;2022-12-08T05:34:39;14.40;;;3.63;;
249;SDS011;109;19.806;-70.704;2022-12-08T05:37:19;14.97;;;3.50;;
249;SDS011;109;19.806;-70.704;2022-12-08T05:39:53;12.67;;;3.70;;
249;SDS011;109;19.806;-70.704;2022-12-08T05:42:33;15.23;;;3.80;;
249;SDS011;109;19.806;-70.704;2022-12-08T05:44:59;17.83;;;3.57;;
249;SDS011;109;19.806;-70.704;2022-12-08T05:47:40;11.80;;;4.73;;
249;SDS011;109;19.806;-70.704;2022-12-08T05:50:06;15.83;;;4.13;;
249;SDS011;109;19.806;-70.704;2022-12-08T05:52:46;12.60;;;4.50;;
249;SDS011;109;19.806;-70.704;2022-12-08T05:55:12;17.47;;;4.27;;
249;SDS011;109;19.806;-70.704;2022-12-08T05:57:52;19.07;;;3.70;;
249;SDS011;109;19.806;-70.704;2022-12-08T06:00:18;13.90;;;4.30;;
249;SDS011;109;19.806;-70.704;2022-12-08T06:03:00;8.40;;;3.90;;
249;SDS011;109;19.806;-70.704;2022-12-08T06:05:26;17.57;;;4.23;;
249;SDS011;109;19.806;-70.704;2022-12-08T06:08:06;18.10;;;4.40;;
249;SDS011;109;19.806;-70.704;2022-12-08T06:10:41;9.97;;;3.70;;
249;SDS011;109;19.806;-70.704;2022-12-08T06:13:22;12.53;;;3.87;;
249;SDS011;109;19.806;-70.704;2022-12-08T06:15:48;10.60;;;3.67;;
249;SDS011;109;19.806;-70.704;2022-12-08T06:18:29;17.50;;;3.77;;
249;SDS011;109;19.806;-70.704;2022-12-08T06:21:09;10.00;;;3.40;;
249;SDS011;109;19.806;-70.704;2022-12-08T06:23:37;18.43;;;3.63;;
249;SDS011;109;19.806;-70.704;2022-12-08T06:26:18;8.87;;;3.00;;
249;SDS011;109;19.806;-70.704;2022-12-08T06:28:45;15.37;;;3.50;;
249;SDS011;109;19.806;-70.704;2022-12-08T06:31:31;16.60;;;3.60;;
249;SDS011;109;19.806;-70.704;2022-12-08T06:34:05;17.03;;;3.63;;
249;SDS011;109;19.806;-70.704;2022-12-08T06:36:46;18.80;;;4.70;;
249;SDS011;109;19.806;-70.704;2022-12-08T06:39:12;18.40;;;4.43;;
249;SDS011;109;19.806;-70.704;2022-12-08T06:41:59;17.70;;;4.13;;
249;SDS011;109;19.806;-70.704;2022-12-08T06:44:51;24.30;;;4.50;;
249;SDS011;109;19.806;-70.704;2022-12-08T06:47:31;18.50;;;3.80;;
249;SDS011;109;19.806;-70.704;2022-12-08T06:49:57;16.87;;;3.87;;
249;SDS011;109;19.806;-70.704;2022-12-08T06:52:38;42.67;;;8.00;;
249;SDS011;109;19.806;-70.704;2022-12-08T06:55:06;30.37;;;6.93;;
249;SDS011;109;19.806;-70.704;2022-12-08T06:57:46;27.40;;;4.83;;
249;SDS011;109;19.806;-70.704;2022-12-08T07:00:12;28.73;;;6.20;;
249;SDS011;109;19.806;-70.704;2022-12-08T07:02:53;15.50;;;4.17;;
249;SDS011;109;19.806;-70.704;2022-12-08T07:05:19;14.77;;;3.60;;
249;SDS011;109;19.806;-70.704;2022-12-08T07:08:00;12.57;;;3.60;;
249;SDS011;109;19.806;-70.704;2022-12-08T07:10:26;29.07;;;5.70;;
249;SDS011;109;19.806;-70.704;2022-12-08T07:13:13;28.10;;;5.83;;
249;SDS011;109;19.806;-70.704;2022-12-08T07:15:47;20.57;;;4.30;;
249;SDS011;109;19.806;-70.704;2022-12-08T07:18:27;23.30;;;4.50;;
249;SDS011;109;19.806;-70.704;2022-12-08T07:21:08;14.17;;;5.30;;
249;SDS011;109;19.806;-70.704;2022-12-08T07:23:36;26.30;;;4.57;;
249;SDS011;109;19.806;-70.704;2022-12-08T07:26:17;15.60;;;5.17;;
249;SDS011;109;19.806;-70.704;2022-12-08T07:28:43;20.30;;;4.80;;
249;SDS011;109;19.806;-70.704;2022-12-08T07:31:29;16.70;;;4.83;;
249;SDS011;109;19.806;-70.704;2022-12-08T07:34:10;13.10;;;3.80;;
249;SDS011;109;19.806;-70.704;2022-12-08T07:36:51;12.50;;;3.90;;
249;SDS011;109;19.806;-70.704;2022-12-08T07:39:17;12.43;;;4.30;;
249;SDS011;109;19.806;-70.704;2022-12-08T07:41:58;15.73;;;4.50;;
249;SDS011;109;19.806;-70.704;2022-12-08T07:44:32;23.30;;;5.43;;
249;SDS011;109;19.806;-70.704;2022-12-08T07:47:12;21.60;;;5.13;;
249;SDS011;109;19.806;-70.704;2022-12-08T07:49:38;33.07;;;5.30;;
249;SDS011;109;19.806;-70.704;2022-12-08T07:52:18;16.23;;;4.07;;
249;SDS011;109;19.806;-70.704;2022-12-08T07:54:44;19.87;;;5.10;;
249;SDS011;109;19.806;-70.704;2022-12-08T07:57:26;23.73;;;5.10;;
249;SDS011;109;19.806;-70.704;2022-12-08T07:59:52;22.63;;;5.43;;
249;SDS011;109;19.806;-70.704;2022-12-08T08:02:37;20.67;;;5.10;;
249;SDS011;109;19.806;-70.704;2022-12-08T08:05:10;30.43;;;5.40;;
249;SDS011;109;19.806;-70.704;2022-12-08T08:07:52;21.33;;;5.27;;
249;SDS011;109;19.806;-70.704;2022-12-08T08:10:18;26.87;;;4.87;;
249;SDS011;109;19.806;-70.704;2022-12-08T08:12:59;25.07;;;5.70;;
249;SDS011;109;19.806;-70.704;2022-12-08T08:15:33;17.77;;;4.47;;
249;SDS011;109;19.806;-70.704;2022-12-08T08:18:13;22.30;;;6.40;;
249;SDS011;109;19.806;-70.704;2022-12-08T08:20:39;29.93;;;5.60;;
249;SDS011;109;19.806;-70.704;2022-12-08T08:23:19;23.60;;;5.30;;
249;SDS011;109;19.806;-70.704;2022-12-08T08:25:45;18.07;;;4.77;;
249;SDS011;109;19.806;-70.704;2022-12-08T08:28:26;17.10;;;4.90;;
249;SDS011;109;19.806;-70.704;2022-12-08T08:31:12;18.30;;;4.00;;
249;SDS011;109;19.806;-70.704;2022-12-08T08:33:52;16.07;;;4.13;;
249;SDS011;109;19.806;-70.704;2022-12-08T08:36:37;19.37;;;4.40;;
249;SDS011;109;19.806;-70.704;2022-12-08T08:39:04;14.43;;;3.70;;
249;SDS011;109;19.806;-70.704;2022-12-08T08:41:59;17.37;;;4.00;;
249;SDS011;109;19.806;-70.704;2022-12-08T08:44:39;19.70;;;4.17;;
249;SDS011;109;19.806;-70.704;2022-12-08T08:47:20;19.50;;;4.63;;
249;SDS011;109;19.806;-70.704;2022-12-08T08:49:46;14.30;;;4.30;;
249;SDS011;109;19.806;-70.704;2022-12-08T08:52:26;16.67;;;4.20;;
249;SDS011;109;19.806;-70.704;2022-12-08T08:54:52;14.77;;;4.30;;
249;SDS011;109;19.806;-70.704;2022-12-08T08:57:32;18.63;;;5.80;;
249;SDS011;109;19.806;-70.704;2022-12-08T08:59:58;19.23;;;5.30;;
249;SDS011;109;19.806;-70.704;2022-12-08T09:02:41;19.80;;;4.73;;
249;SDS011;109;19.806;-70.704;2022-12-08T09:05:07;17.23;;;4.50;;
249;SDS011;109;19.806;-70.704;2022-12-08T09:07:47;16.47;;;4.87;;
249;SDS011;109;19.806;-70.704;2022-12-08T09:10:13;16.53;;;4.30;;
249;SDS011;109;19.806;-70.704;2022-12-08T09:12:53;14.93;;;4.13;;
249;SDS011;109;19.806;-70.704;2022-12-08T09:15:19;23.17;;;4.60;;
249;SDS011;109;19.806;-70.704;2022-12-08T09:18:00;17.50;;;4.43;;
249;SDS011;109;19.806;-70.704;2022-12-08T09:20:27;14.60;;;4.33;;
249;SDS011;109;19.806;-70.704;2022-12-08T09:23:08;19.30;;;4.60;;
249;SDS011;109;19.806;-70.704;2022-12-08T09:25:35;16.90;;;3.80;;
249;SDS011;109;19.806;-70.704;2022-12-08T09:28:15;10.67;;;3.67;;
249;SDS011;109;19.806;-70.704;2022-12-08T09:30:41;10.17;;;3.20;;
249;SDS011;109;19.806;-70.704;2022-12-08T09:33:29;11.30;;;3.50;;
249;SDS011;109;19.806;-70.704;2022-12-08T09:36:09;20.77;;;3.80;;
249;SDS011;109;19.806;-70.704;2022-12-08T09:38:37;21.93;;;4.00;;
249;SDS011;109;19.806;-70.704;2022-12-08T09:41:31;22.23;;;4.00;;
249;SDS011;109;19.806;-70.704;2022-12-08T09:47:17;18.80;;;3.83;;
249;SDS011;109;19.806;-70.704;2022-12-08T09:50:02;17.73;;;4.07;;
249;SDS011;109;19.806;-70.704;2022-12-08T09:56:02;16.23;;;4.30;;
249;SDS011;109;19.806;-70.704;2022-12-08T10:02:23;23.43;;;4.37;;
249;SDS011;109;19.806;-70.704;2022-12-08T10:04:58;12.77;;;4.03;;
249;SDS011;109;19.806;-70.704;2022-12-08T10:07:45;18.63;;;4.60;;
249;SDS011;109;19.806;-70.704;2022-12-08T10:13:33;15.10;;;4.60;;
249;SDS011;109;19.806;-70.704;2022-12-08T10:19:22;15.97;;;4.03;;
249;SDS011;109;19.806;-70.704;2022-12-08T10:22:07;14.67;;;4.20;;
249;SDS011;109;19.806;-70.704;2022-12-08T10:25:18;17.13;;;4.37;;
249;SDS011;109;19.806;-70.704;2022-12-08T10:28:08;13.63;;;4.17;;
249;SDS011;109;19.806;-70.704;2022-12-08T10:30:41;17.40;;;3.77;;
249;SDS011;109;19.806;-70.704;2022-12-08T10:33:32;13.60;;;3.70;;
249;SDS011;109;19.806;-70.704;2022-12-08T10:36:12;13.20;;;4.07;;
249;SDS011;109;19.806;-70.704;2022-12-08T10:38:39;14.23;;;4.30;;
249;SDS011;109;19.806;-70.704;2022-12-08T10:41:19;14.40;;;4.00;;
249;SDS011;109;19.806;-70.704;2022-12-08T10:43:58;18.50;;;4.17;;
249;SDS011;109;19.806;-70.704;2022-12-08T10:46:39;18.20;;;5.07;;
249;SDS011;109;19.806;-70.704;2022-12-08T10:51:46;13.37;;;4.30;;
249;SDS011;109;19.806;-70.704;2022-12-08T10:54:32;19.03;;;5.13;;
249;SDS011;109;19.806;-70.704;2022-12-08T10:57:21;23.30;;;5.63;;
249;SDS011;109;19.806;-70.704;2022-12-08T11:00:02;17.87;;;4.53;;
249;SDS011;109;19.806;-70.704;2022-12-08T11:02:29;18.60;;;4.93;;
249;SDS011;109;19.806;-70.704;2022-12-08T11:05:13;17.33;;;4.53;;
249;SDS011;109;19.806;-70.704;2022-12-08T11:07:49;19.30;;;5.00;;
249;SDS011;109;19.806;-70.704;2022-12-08T11:13:01;17.93;;;4.73;;
249;SDS011;109;19.806;-70.704;2022-12-08T11:15:33;15.23;;;4.13;;
249;SDS011;109;19.806;-70.704;2022-12-08T11:18:07;16.37;;;4.80;;
249;SDS011;109;19.806;-70.704;2022-12-08T11:20:47;12.13;;;4.07;;
249;SDS011;109;19.806;-70.704;2022-12-08T11:23:26;14.83;;;4.20;;
249;SDS011;109;19.806;-70.704;2022-12-08T11:25:57;16.10;;;3.93;;
249;SDS011;109;19.806;-70.704;2022-12-08T11:28:28;19.70;;;4.47;;
249;SDS011;109;19.806;-70.704;2022-12-08T11:30:59;20.70;;;6.40;;
249;SDS011;109;19.806;-70.704;2022-12-08T11:33:33;21.80;;;5.43;;
249;SDS011;109;19.806;-70.704;2022-12-08T11:36:03;19.93;;;4.90;;
249;SDS011;109;19.806;-70.704;2022-12-08T11:38:34;27.70;;;5.30;;
249;SDS011;109;19.806;-70.704;2022-12-08T11:41:08;21.30;;;5.10;;
249;SDS011;109;19.806;-70.704;2022-12-08T11:46:45;12.63;;;4.60;;
249;SDS011;109;19.806;-70.704;2022-12-08T11:49:33;20.60;;;4.70;;
249;SDS011;109;19.806;-70.704;2022-12-08T11:55:15;19.97;;;4.97;;
249;SDS011;109;19.806;-70.704;2022-12-08T11:57:58;17.97;;;5.87;;
249;SDS011;109;19.806;-70.704;2022-12-08T12:00:36;23.97;;;6.20;;
249;SDS011;109;19.806;-70.704;2022-12-08T12:03:05;22.47;;;5.93;;
249;SDS011;109;19.806;-70.704;2022-12-08T12:09:08;14.20;;;4.23;;
249;SDS011;109;19.806;-70.704;2022-12-08T12:11:57;11.70;;;4.03;;
249;SDS011;109;19.806;-70.704;2022-12-08T12:14:51;14.27;;;4.20;;
249;SDS011;109;19.806;-70.704;2022-12-08T12:20:45;20.87;;;5.30;;
249;SDS011;109;19.806;-70.704;2022-12-08T12:23:28;16.20;;;5.57;;
249;SDS011;109;19.806;-70.704;2022-12-08T12:26:06;11.60;;;4.70;;
249;SDS011;109;19.806;-70.704;2022-12-08T12:28:39;21.53;;;4.83;;
249;SDS011;109;19.806;-70.704;2022-12-08T12:31:11;16.53;;;4.47;;
249;SDS011;109;19.806;-70.704;2022-12-08T12:33:42;13.90;;;4.20;;
249;SDS011;109;19.806;-70.704;2022-12-08T12:36:11;11.57;;;4.23;;
249;SDS011;109;19.806;-70.704;2022-12-08T12:38:43;17.97;;;5.10;;
249;SDS011;109;19.806;-70.704;2022-12-08T12:59:46;13.33;;;5.73;;
249;SDS011;109;19.806;-70.704;2022-12-08T13:02:31;18.17;;;6.23;;
249;SDS011;109;19.806;-70.704;2022-12-08T13:05:33;14.30;;;4.07;;
249;SDS011;109;19.806;-70.704;2022-12-08T13:08:20;16.07;;;4.63;;
249;SDS011;109;19.806;-70.704;2022-12-08T13:10:59;10.67;;;4.43;;
249;SDS011;109;19.806;-70.704;2022-12-08T13:13:30;12.80;;;4.80;;
249;SDS011;109;19.806;-70.704;2022-12-08T13:16:03;8.53;;;4.00;;
249;SDS011;109;19.806;-70.704;2022-12-08T13:18:40;15.37;;;3.73;;
249;SDS011;109;19.806;-70.704;2022-12-08T13:21:18;20.13;;;4.97;;
249;SDS011;109;19.806;-70.704;2022-12-08T13:23:48;18.83;;;4.13;;
249;SDS011;109;19.806;-70.704;2022-12-08T13:26:42;22.70;;;4.10;;
249;SDS011;109;19.806;-70.704;2022-12-08T13:29:22;15.70;;;3.90;;
249;SDS011;109;19.806;-70.704;2022-12-08T13:31:50;14.10;;;4.27;;
249;SDS011;109;19.806;-70.704;2022-12-08T13:34:27;13.97;;;3.47;;
249;SDS011;109;19.806;-70.704;2022-12-08T13:37:35;20.17;;;4.20;;
249;SDS011;109;19.806;-70.704;2022-12-08T13:40:15;16.43;;;3.83;;
249;SDS011;109;19.806;-70.704;2022-12-08T13:42:58;13.23;;;3.60;;
249;SDS011;109;19.806;-70.704;2022-12-08T13:45:34;24.27;;;4.37;;
249;SDS011;109;19.806;-70.704;2022-12-08T13:54:05;26.60;;;10.50;;
249;SDS011;109;19.806;-70.704;2022-12-08T13:56:44;53.20;;;18.23;;
249;SDS011;109;19.806;-70.704;2022-12-08T14:01:56;18.90;;;5.27;;
249;SDS011;109;19.806;-70.704;2022-12-08T14:04:26;57.87;;;16.00;;
249;SDS011;109;19.806;-70.704;2022-12-08T14:07:02;28.30;;;8.63;;
249;SDS011;109;19.806;-70.704;2022-12-08T14:09:33;23.33;;;7.20;;
249;SDS011;109;19.806;-70.704;2022-12-08T14:12:05;28.10;;;5.70;;
249;SDS011;109;19.806;-70.704;2022-12-08T14:14:59;14.17;;;4.63;;
249;SDS011;109;19.806;-70.704;2022-12-08T14:17:30;20.00;;;4.43;;
249;SDS011;109;19.806;-70.704;2022-12-08T14:22:37;28.23;;;5.47;;
249;SDS011;109;19.806;-70.704;2022-12-08T14:25:06;27.30;;;5.80;;
249;SDS011;109;19.806;-70.704;2022-12-08T14:27:40;26.73;;;4.87;;
249;SDS011;109;19.806;-70.704;2022-12-08T14:32:45;35.07;;;8.13;;
249;SDS011;109;19.806;-70.704;2022-12-08T14:37:59;27.47;;;6.80;;
249;SDS011;109;19.806;-70.704;2022-12-08T14:45:33;26.90;;;7.47;;
249;SDS011;109;19.806;-70.704;2022-12-08T14:59:19;20.00;;;4.13;;
249;SDS011;109;19.806;-70.704;2022-12-08T15:02:21;22.77;;;3.60;;
249;SDS011;109;19.806;-70.704;2022-12-08T15:04:53;20.30;;;4.53;;
249;SDS011;109;19.806;-70.704;2022-12-08T15:07:27;29.97;;;4.57;;
249;SDS011;109;19.806;-70.704;2022-12-08T15:13:00;14.50;;;4.50;;
249;SDS011;109;19.806;-70.704;2022-12-08T15:15:46;12.97;;;2.90;;
249;SDS011;109;19.806;-70.704;2022-12-08T15:18:35;49.60;;;7.47;;
249;SDS011;109;19.806;-70.704;2022-12-08T15:21:07;32.87;;;5.73;;
249;SDS011;109;19.806;-70.704;2022-12-08T15:23:38;62.27;;;9.27;;
249;SDS011;109;19.806;-70.704;2022-12-08T15:26:17;85.17;;;9.27;;
249;SDS011;109;19.806;-70.704;2022-12-08T15:28:49;40.00;;;5.50;;
249;SDS011;109;19.806;-70.704;2022-12-08T15:31:16;72.37;;;8.17;;
249;SDS011;109;19.806;-70.704;2022-12-08T15:33:43;35.27;;;5.97;;
249;SDS011;109;19.806;-70.704;2022-12-08T15:36:10;27.03;;;4.33;;
249;SDS011;109;19.806;-70.704;2022-12-08T15:38:37;36.73;;;6.00;;
249;SDS011;109;19.806;-70.704;2022-12-08T15:41:03;27.40;;;5.50;;
249;SDS011;109;19.806;-70.704;2022-12-08T15:43:30;45.17;;;7.10;;
249;SDS011;109;19.806;-70.704;2022-12-08T15:45:57;34.27;;;4.60;;
249;SDS011;109;19.806;-70.704;2022-12-08T15:48:25;39.13;;;7.80;;
249;SDS011;109;19.806;-70.704;2022-12-08T15:50:55;19.43;;;4.30;;
249;SDS011;109;19.806;-70.704;2022-12-08T15:53:22;29.40;;;6.50;;
249;SDS011;109;19.806;-70.704;2022-12-08T15:55:49;13.10;;;3.23;;
249;SDS011;109;19.806;-70.704;2022-12-08T15:58:22;21.53;;;4.30;;
249;SDS011;109;19.806;-70.704;2022-12-08T16:00:50;19.70;;;4.60;;
249;SDS011;109;19.806;-70.704;2022-12-08T16:03:23;16.07;;;3.63;;
249;SDS011;109;19.806;-70.704;2022-12-08T16:05:52;18.13;;;3.60;;
249;SDS011;109;19.806;-70.704;2022-12-08T16:08:20;17.80;;;3.50;;
249;SDS011;109;19.806;-70.704;2022-12-08T16:10:47;22.67;;;4.17;;
249;SDS011;109;19.806;-70.704;2022-12-08T16:13:15;25.60;;;4.17;;
249;SDS011;109;19.806;-70.704;2022-12-08T16:16:05;26.43;;;6.73;;
249;SDS011;109;19.806;-70.704;2022-12-08T16:18:36;46.23;;;8.53;;
249;SDS011;109;19.806;-70.704;2022-12-08T16:21:04;35.10;;;7.23;;
249;SDS011;109;19.806;-70.704;2022-12-08T16:23:31;39.03;;;8.47;;
249;SDS011;109;19.806;-70.704;2022-12-08T16:25:57;21.83;;;4.93;;
249;SDS011;109;19.806;-70.704;2022-12-08T16:28:25;14.03;;;4.60;;
249;SDS011;109;19.806;-70.704;2022-12-08T16:30:52;22.73;;;4.80;;
249;SDS011;109;19.806;-70.704;2022-12-08T16:33:18;23.43;;;4.70;;
249;SDS011;109;19.806;-70.704;2022-12-08T16:35:45;17.90;;;4.27;;
249;SDS011;109;19.806;-70.704;2022-12-08T16:38:15;20.33;;;4.00;;
249;SDS011;109;19.806;-70.704;2022-12-08T16:40:45;13.17;;;4.00;;
249;SDS011;109;19.806;-70.704;2022-12-08T16:43:31;18.10;;;4.07;;
249;SDS011;109;19.806;-70.704;2022-12-08T16:45:58;15.67;;;3.87;;
249;SDS011;109;19.806;-70.704;2022-12-08T16:48:26;13.83;;;4.00;;
249;SDS011;109;19.806;-70.704;2022-12-08T16:50:52;11.90;;;3.70;;
249;SDS011;109;19.806;-70.704;2022-12-08T16:53:19;12.93;;;4.30;;
249;SDS011;109;19.806;-70.704;2022-12-08T16:55:46;16.47;;;3.57;;
249;SDS011;109;19.806;-70.704;2022-12-08T16:58:14;31.90;;;5.67;;
249;SDS011;109;19.806;-70.704;2022-12-08T17:00:43;15.40;;;3.93;;
249;SDS011;109;19.806;-70.704;2022-12-08T17:03:10;22.33;;;3.80;;
249;SDS011;109;19.806;-70.704;2022-12-08T17:05:39;11.07;;;3.80;;
249;SDS011;109;19.806;-70.704;2022-12-08T17:08:06;13.03;;;3.87;;
249;SDS011;109;19.806;-70.704;2022-12-08T17:10:32;14.63;;;3.40;;
249;SDS011;109;19.806;-70.704;2022-12-08T17:13:00;12.70;;;3.93;;
249;SDS011;109;19.806;-70.704;2022-12-08T17:15:27;11.80;;;3.30;;
249;SDS011;109;19.806;-70.704;2022-12-08T17:17:54;9.33;;;3.20;;
249;SDS011;109;19.806;-70.704;2022-12-08T17:20:22;10.60;;;3.43;;
249;SDS011;109;19.806;-70.704;2022-12-08T17:22:52;12.27;;;3.60;;
249;SDS011;109;19.806;-70.704;2022-12-08T17:25:23;18.47;;;3.37;;
249;SDS011;109;19.806;-70.704;2022-12-08T17:27:53;17.23;;;3.90;;
249;SDS011;109;19.806;-70.704;2022-12-08T17:30:20;15.97;;;3.37;;
249;SDS011;109;19.806;-70.704;2022-12-08T17:32:47;18.77;;;3.70;;
249;SDS011;109;19.806;-70.704;2022-12-08T17:35:13;8.93;;;3.20;;
249;SDS011;109;19.806;-70.704;2022-12-08T17:37:41;10.87;;;2.73;;
249;SDS011;109;19.806;-70.704;2022-12-08T17:40:08;11.27;;;3.07;;
249;SDS011;109;19.806;-70.704;2022-12-08T17:42:35;13.87;;;2.90;;
249;SDS011;109;19.806;-70.704;2022-12-08T17:45:03;9.33;;;3.50;;
249;SDS011;109;19.806;-70.704;2022-12-08T17:47:31;10.03;;;2.90;;
249;SDS011;109;19.806;-70.704;2022-12-08T17:49:58;11.60;;;3.27;;
249;SDS011;109;19.806;-70.704;2022-12-08T17:52:25;10.00;;;3.33;;
249;SDS011;109;19.806;-70.704;2022-12-08T17:54:51;12.57;;;3.37;;
249;SDS011;109;19.806;-70.704;2022-12-08T17:57:18;11.40;;;2.90;;
249;SDS011;109;19.806;-70.704;2022-12-08T17:59:45;10.67;;;3.30;;